Time;durP1;ratioP1;P1;durP2;ratioP2;P2;SDS_P1;SDS_P2;PMS_P1;PMS_P2;Temp;Humidity;BMP_temperature;BMP_pressure;BME280_temperature;BME280_humidity;BME280_pressure;Samples;Min_cycle;Max_cycle;Signal;HPM_P1;HPM_P2
2021/03/16 00:02:11;;;;;;;28.03;4.13;;;;;;;;;;5041686;28;37574;-77
2021/03/16 00:04:37;;;;;;;36.57;5.70;;;;;;;;;;5041189;28;38601;-75
2021/03/16 00:07:13;;;;;;;34.93;4.60;;;;;;;;;;5040360;28;37163;-75
2021/03/16 00:09:39;;;;;;;25.93;3.80;;;;;;;;;;5035790;28;40506;-77
2021/03/16 00:12:06;;;;;;;27.07;4.07;;;;;;;;;;5024898;28;37112;-76
2021/03/16 00:14:32;;;;;;;28.60;4.00;;;;;;;;;;5024220;28;39590;-76
2021/03/16 00:16:59;;;;;;;26.53;3.73;;;;;;;;;;5023095;28;38264;-76
2021/03/16 00:19:25;;;;;;;33.00;4.70;;;;;;;;;;5027004;28;37573;-75
2021/03/16 00:21:52;;;;;;;32.77;4.10;;;;;;;;;;5022903;28;36849;-76
2021/03/16 00:24:18;;;;;;;30.33;4.67;;;;;;;;;;5033531;28;40363;-77
2021/03/16 00:26:45;;;;;;;31.80;4.00;;;;;;;;;;5024242;28;38944;-75
2021/03/16 00:29:11;;;;;;;31.43;5.10;;;;;;;;;;5024898;28;38943;-75
2021/03/16 00:31:37;;;;;;;32.07;4.77;;;;;;;;;;5019220;28;38366;-77
2021/03/16 00:34:04;;;;;;;28.13;4.27;;;;;;;;;;5022258;28;38526;-75
2021/03/16 00:36:30;;;;;;;32.83;3.83;;;;;;;;;;5018629;28;38984;-76
2021/03/16 00:38:57;;;;;;;22.27;5.07;;;;;;;;;;5027792;28;39324;-76
2021/03/16 00:41:23;;;;;;;28.50;4.10;;;;;;;;;;5031025;28;37623;-75
2021/03/16 00:43:51;;;;;;;33.10;4.40;;;;;;;;;;5029120;28;39094;-77
2021/03/16 00:46:18;;;;;;;29.13;5.03;;;;;;;;;;5024671;28;39410;-77
2021/03/16 00:48:44;;;;;;;28.73;4.00;;;;;;;;;;5019421;28;38599;-74
2021/03/16 00:51:10;;;;;;;33.43;4.57;;;;;;;;;;5022369;28;37385;-77
2021/03/16 00:53:37;;;;;;;33.87;4.03;;;;;;;;;;5036907;28;39417;-76
2021/03/16 00:56:03;;;;;;;34.13;4.23;;;;;;;;;;5027358;28;38569;-78
2021/03/16 00:58:30;;;;;;;30.57;4.40;;;;;;;;;;5038713;28;38264;-77
2021/03/16 01:00:57;;;;;;;25.50;4.80;;;;;;;;;;5039555;28;37764;-78
2021/03/16 01:03:23;;;;;;;35.30;4.63;;;;;;;;;;5056933;27;40798;-76
2021/03/16 01:05:50;;;;;;;24.60;3.70;;;;;;;;;;5036393;28;38189;-76
2021/03/16 01:08:17;;;;;;;20.40;3.63;;;;;;;;;;5048770;27;38216;-76
2021/03/16 01:10:44;;;;;;;23.97;3.70;;;;;;;;;;5039605;28;37448;-76
2021/03/16 01:13:10;;;;;;;39.90;5.90;;;;;;;;;;5046913;28;37869;-76
2021/03/16 01:15:37;;;;;;;29.07;4.37;;;;;;;;;;5045914;27;40058;-76
2021/03/16 01:18:04;;;;;;;30.47;3.77;;;;;;;;;;5049512;28;37456;-76
2021/03/16 01:20:30;;;;;;;27.90;4.03;;;;;;;;;;5037461;28;37079;-77
2021/03/16 01:22:58;;;;;;;47.43;5.23;;;;;;;;;;5040567;28;41632;-77
2021/03/16 01:25:24;;;;;;;32.87;3.87;;;;;;;;;;5056062;27;38320;-77
2021/03/16 01:27:51;;;;;;;32.03;4.07;;;;;;;;;;5023186;28;39619;-78
2021/03/16 01:30:17;;;;;;;34.43;4.43;;;;;;;;;;5038174;28;38401;-76
2021/03/16 01:32:44;;;;;;;33.30;4.30;;;;;;;;;;5023147;28;39517;-75
2021/03/16 01:35:12;;;;;;;35.53;3.93;;;;;;;;;;5024070;28;39076;-77
2021/03/16 01:37:39;;;;;;;28.07;3.90;;;;;;;;;;5027716;28;37917;-77
2021/03/16 01:40:13;;;;;;;34.40;4.10;;;;;;;;;;5029414;28;37681;-75
2021/03/16 01:42:40;;;;;;;27.07;3.37;;;;;;;;;;5025380;28;39237;-77
2021/03/16 01:45:10;;;;;;;26.60;3.93;;;;;;;;;;5018988;28;38324;-76
2021/03/16 01:47:36;;;;;;;29.87;3.63;;;;;;;;;;5023485;28;39655;-76
2021/03/16 01:50:09;;;;;;;40.33;4.27;;;;;;;;;;5017136;28;37725;-79
2021/03/16 01:52:35;;;;;;;38.53;4.60;;;;;;;;;;5027163;28;48947;-77
2021/03/16 01:55:02;;;;;;;33.17;4.53;;;;;;;;;;5035192;28;38925;-77
2021/03/16 01:57:29;;;;;;;21.50;3.37;;;;;;;;;;5026351;28;48637;-76
2021/03/16 01:59:56;;;;;;;26.70;3.77;;;;;;;;;;5022105;28;37077;-75
2021/03/16 02:02:22;;;;;;;30.30;3.93;;;;;;;;;;5033938;28;40726;-75
2021/03/16 02:04:50;;;;;;;28.83;3.73;;;;;;;;;;5020815;28;39591;-75
2021/03/16 02:07:26;;;;;;;23.23;4.30;;;;;;;;;;5026163;28;38747;-76
2021/03/16 02:09:55;;;;;;;27.83;5.93;;;;;;;;;;5019746;28;37255;-77
2021/03/16 02:12:51;;;;;;;38.37;4.90;;;;;;;;;;5027102;28;39162;-76
2021/03/16 02:15:22;;;;;;;37.00;4.27;;;;;;;;;;5027905;28;38223;-76
2021/03/16 02:17:53;;;;;;;27.67;4.60;;;;;;;;;;5024682;28;36746;-79
2021/03/16 02:20:33;;;;;;;19.63;3.57;;;;;;;;;;5014431;28;39153;-79
2021/03/16 02:23:03;;;;;;;30.90;4.07;;;;;;;;;;5045912;28;40243;-76
2021/03/16 02:25:30;;;;;;;26.53;3.27;;;;;;;;;;5052577;28;45298;-77
2021/03/16 02:28:15;;;;;;;25.20;3.53;;;;;;;;;;5047278;27;38280;-79
2021/03/16 02:30:43;;;;;;;21.10;3.30;;;;;;;;;;5044104;28;47354;-77
2021/03/16 02:33:11;;;;;;;29.23;3.10;;;;;;;;;;5048923;27;38147;-75
2021/03/16 02:35:39;;;;;;;22.53;3.13;;;;;;;;;;5052737;27;38370;-76
2021/03/16 02:38:06;;;;;;;27.67;3.57;;;;;;;;;;5047953;27;38558;-76
2021/03/16 02:40:33;;;;;;;27.10;3.17;;;;;;;;;;5052432;27;37149;-76
2021/03/16 02:43:01;;;;;;;23.40;3.67;;;;;;;;;;5043946;28;38505;-77
2021/03/16 02:45:28;;;;;;;35.23;4.43;;;;;;;;;;5040350;28;47234;-80
2021/03/16 02:47:55;;;;;;;24.20;3.23;;;;;;;;;;5048933;28;38134;-76
2021/03/16 02:50:22;;;;;;;26.47;3.50;;;;;;;;;;5036025;28;37224;-75
2021/03/16 02:52:48;;;;;;;36.73;4.80;;;;;;;;;;5021265;27;39993;-76
2021/03/16 02:55:15;;;;;;;31.33;3.97;;;;;;;;;;5013505;28;37345;-75
2021/03/16 02:57:44;;;;;;;29.93;4.57;;;;;;;;;;5033023;28;38368;-75
2021/03/16 03:00:10;;;;;;;30.30;4.07;;;;;;;;;;5011611;28;37150;-74
2021/03/16 03:02:39;;;;;;;22.63;4.17;;;;;;;;;;5008547;28;38981;-74
2021/03/16 03:05:07;;;;;;;25.07;3.47;;;;;;;;;;5009568;28;40130;-75
2021/03/16 03:07:34;;;;;;;25.00;3.40;;;;;;;;;;5017747;27;36375;-77
2021/03/16 03:10:00;;;;;;;23.73;4.07;;;;;;;;;;5012662;28;37149;-75
2021/03/16 03:12:27;;;;;;;21.40;3.27;;;;;;;;;;5010634;28;39036;-75
2021/03/16 03:14:53;;;;;;;24.53;3.97;;;;;;;;;;5016227;28;40247;-74
2021/03/16 03:17:19;;;;;;;30.63;4.43;;;;;;;;;;5030571;28;38438;-77
2021/03/16 03:19:46;;;;;;;21.23;3.10;;;;;;;;;;5023561;28;37071;-76
2021/03/16 03:22:17;;;;;;;21.70;3.23;;;;;;;;;;5021662;28;41094;-76
2021/03/16 03:24:48;;;;;;;23.93;3.60;;;;;;;;;;5023948;28;38511;-77
2021/03/16 03:27:23;;;;;;;23.97;3.80;;;;;;;;;;5017299;28;39900;-75
2021/03/16 03:29:50;;;;;;;32.70;4.77;;;;;;;;;;5032437;28;36262;-77
2021/03/16 03:32:23;;;;;;;27.27;4.03;;;;;;;;;;5027525;28;39402;-76
2021/03/16 03:34:49;;;;;;;;;;;;;;;;;;5021319;28;39781;-77
2021/03/16 03:37:17;;;;;;;27.27;4.80;;;;;;;;;;5020985;28;38505;-76
2021/03/16 03:39:44;;;;;;;25.27;4.43;;;;;;;;;;5021587;28;37260;-76
2021/03/16 03:42:10;;;;;;;30.00;3.67;;;;;;;;;;5017870;28;40119;-75
2021/03/16 03:44:39;;;;;;;31.40;4.83;;;;;;;;;;5012048;28;39694;-76
2021/03/16 03:47:05;;;;;;;32.33;3.60;;;;;;;;;;5024532;28;38720;-80
2021/03/16 03:49:32;;;;;;;24.67;3.80;;;;;;;;;;5017079;28;37423;-75
2021/03/16 03:51:59;;;;;;;25.93;4.67;;;;;;;;;;5033556;28;39205;-76
2021/03/16 03:54:26;;;;;;;26.57;4.17;;;;;;;;;;5059404;28;38293;-76
2021/03/16 03:56:53;;;;;;;29.27;3.80;;;;;;;;;;5054087;27;37872;-77
2021/03/16 03:59:19;;;;;;;29.53;3.97;;;;;;;;;;5048187;28;37138;-75
2021/03/16 04:01:46;;;;;;;25.83;3.63;;;;;;;;;;5046943;28;38907;-77
2021/03/16 04:04:12;;;;;;;31.67;3.80;;;;;;;;;;5045041;27;37399;-77
2021/03/16 04:06:39;;;;;;;20.07;3.70;;;;;;;;;;5026143;28;38929;-76
2021/03/16 04:09:06;;;;;;;39.50;4.97;;;;;;;;;;5039036;28;37371;-75
2021/03/16 04:11:33;;;;;;;25.40;4.00;;;;;;;;;;5025306;28;39110;-74
2021/03/16 04:13:59;;;;;;;30.33;3.73;;;;;;;;;;5034928;28;39342;-76
2021/03/16 04:16:26;;;;;;;31.77;4.87;;;;;;;;;;5043255;28;37455;-77
2021/03/16 04:18:52;;;;;;;26.40;3.90;;;;;;;;;;5048298;28;36726;-76
2021/03/16 04:21:19;;;;;;;27.07;4.63;;;;;;;;;;5051304;27;37759;-77
2021/03/16 04:23:45;;;;;;;31.30;3.97;;;;;;;;;;5041477;28;38866;-76
2021/03/16 04:26:12;;;;;;;28.27;3.90;;;;;;;;;;5046041;28;39459;-75
2021/03/16 04:28:38;;;;;;;24.87;5.10;;;;;;;;;;5040649;28;38256;-78
2021/03/16 04:31:05;;;;;;;28.23;4.13;;;;;;;;;;5050569;27;38827;-78
2021/03/16 04:33:31;;;;;;;30.90;3.77;;;;;;;;;;5038253;28;38541;-75
2021/03/16 04:35:58;;;;;;;28.10;3.93;;;;;;;;;;5041392;28;38491;-77
2021/03/16 04:38:24;;;;;;;32.70;3.50;;;;;;;;;;5042291;28;37190;-77
2021/03/16 04:40:51;;;;;;;23.73;3.97;;;;;;;;;;5049147;27;39851;-75
2021/03/16 04:43:18;;;;;;;26.30;4.43;;;;;;;;;;5052280;27;39311;-76
2021/03/16 04:45:45;;;;;;;25.97;3.47;;;;;;;;;;5049286;27;39007;-75
2021/03/16 04:48:11;;;;;;;29.47;3.90;;;;;;;;;;5055658;28;37091;-75
2021/03/16 04:50:37;;;;;;;26.83;3.93;;;;;;;;;;5045003;28;39730;-77
2021/03/16 04:53:04;;;;;;;30.87;3.90;;;;;;;;;;5042207;28;39041;-77
2021/03/16 04:55:30;;;;;;;24.90;3.53;;;;;;;;;;5053573;27;39182;-77
2021/03/16 04:57:58;;;;;;;28.07;3.83;;;;;;;;;;5039566;28;37165;-76
2021/03/16 05:00:25;;;;;;;26.07;3.70;;;;;;;;;;5050082;27;40021;-75
2021/03/16 05:02:51;;;;;;;24.10;3.50;;;;;;;;;;5043152;27;40462;-78
2021/03/16 05:05:17;;;;;;;21.70;3.73;;;;;;;;;;5037359;27;37449;-76
2021/03/16 05:07:44;;;;;;;28.97;4.50;;;;;;;;;;5027329;28;35251;-76
2021/03/16 05:10:10;;;;;;;36.40;4.13;;;;;;;;;;5028359;28;39274;-77
2021/03/16 05:12:37;;;;;;;27.40;4.57;;;;;;;;;;5021435;28;38402;-76
2021/03/16 05:15:05;;;;;;;23.83;3.10;;;;;;;;;;5024360;28;39010;-77
2021/03/16 05:17:31;;;;;;;29.23;2.97;;;;;;;;;;5028789;28;38583;-76
2021/03/16 05:19:57;;;;;;;26.30;4.63;;;;;;;;;;5022098;28;39193;-77
2021/03/16 05:22:24;;;;;;;23.07;3.27;;;;;;;;;;5038380;28;39746;-76
2021/03/16 05:24:50;;;;;;;24.33;4.27;;;;;;;;;;5039762;28;38285;-77
2021/03/16 05:27:17;;;;;;;21.97;3.07;;;;;;;;;;5040920;28;37012;-77
2021/03/16 05:29:43;;;;;;;31.10;4.30;;;;;;;;;;5045059;27;39034;-75
2021/03/16 05:32:09;;;;;;;23.87;3.47;;;;;;;;;;5054516;27;39099;-76
2021/03/16 05:34:36;;;;;;;32.57;3.93;;;;;;;;;;5036983;28;38337;-75
2021/03/16 05:37:02;;;;;;;29.43;3.60;;;;;;;;;;5052345;27;37099;-75
2021/03/16 05:39:29;;;;;;;28.13;3.83;;;;;;;;;;5039591;28;38500;-77
2021/03/16 05:41:55;;;;;;;35.93;4.60;;;;;;;;;;5044696;27;39679;-74
2021/03/16 05:44:22;;;;;;;27.03;4.73;;;;;;;;;;5042884;27;38434;-79
2021/03/16 05:46:49;;;;;;;23.23;2.90;;;;;;;;;;5045047;28;38286;-75
2021/03/16 05:49:17;;;;;;;23.83;3.67;;;;;;;;;;5041409;27;39212;-77
2021/03/16 05:51:43;;;;;;;24.47;3.27;;;;;;;;;;5041074;28;38406;-76
2021/03/16 05:54:10;;;;;;;25.67;3.33;;;;;;;;;;5043962;28;38275;-76
2021/03/16 05:56:37;;;;;;;24.43;3.70;;;;;;;;;;5039319;27;37749;-75
2021/03/16 05:59:04;;;;;;;29.33;3.53;;;;;;;;;;5042834;27;40998;-75
2021/03/16 06:01:30;;;;;;;19.70;3.43;;;;;;;;;;5017471;28;39833;-75
2021/03/16 06:03:56;;;;;;;26.93;4.27;;;;;;;;;;5026440;28;38116;-75
2021/03/16 06:06:23;;;;;;;31.00;3.07;;;;;;;;;;5035998;28;37154;-77
2021/03/16 06:08:49;;;;;;;27.20;3.33;;;;;;;;;;5022970;28;39779;-75
2021/03/16 06:11:16;;;;;;;34.17;4.47;;;;;;;;;;5024408;28;38880;-75
2021/03/16 06:13:53;;;;;;;28.27;4.50;;;;;;;;;;5020126;28;39081;-80
2021/03/16 06:16:19;;;;;;;26.03;3.17;;;;;;;;;;5019441;28;38242;-75
2021/03/16 06:18:47;;;;;;;25.03;3.83;;;;;;;;;;5021338;28;39690;-77
2021/03/16 06:21:23;;;;;;;25.37;3.73;;;;;;;;;;5017346;28;38284;-76
2021/03/16 06:23:54;;;;;;;24.60;4.17;;;;;;;;;;5031719;28;39073;-75
2021/03/16 06:26:20;;;;;;;19.07;3.20;;;;;;;;;;5020302;28;37580;-76
2021/03/16 06:28:47;;;;;;;27.57;3.30;;;;;;;;;;5022593;28;39892;-75
2021/03/16 06:31:25;;;;;;;24.63;3.27;;;;;;;;;;5019498;28;39674;-76
2021/03/16 06:33:52;;;;;;;27.97;3.97;;;;;;;;;;5021646;28;39155;-75
2021/03/16 06:36:23;;;;;;;26.60;3.17;;;;;;;;;;5016840;28;36798;-75
2021/03/16 06:38:50;;;;;;;29.40;3.30;;;;;;;;;;5018281;28;40327;-78
2021/03/16 06:41:17;;;;;;;15.10;2.80;;;;;;;;;;5020366;28;37378;-76
2021/03/16 06:43:54;;;;;;;20.17;3.27;;;;;;;;;;5050115;28;36667;-76
2021/03/16 06:46:35;;;;;;;22.67;3.33;;;;;;;;;;5020782;28;37090;-76
2021/03/16 06:49:11;;;;;;;22.50;3.23;;;;;;;;;;5029649;28;36627;-77
2021/03/16 06:51:38;;;;;;;17.77;3.20;;;;;;;;;;5016259;28;47931;-77
2021/03/16 06:54:08;;;;;;;20.23;2.80;;;;;;;;;;5039646;28;39175;-77
2021/03/16 06:56:35;;;;;;;19.30;3.73;;;;;;;;;;5039987;28;37635;-77
2021/03/16 06:59:01;;;;;;;32.33;3.30;;;;;;;;;;5053714;28;40384;-76
2021/03/16 07:01:36;;;;;;;25.17;2.93;;;;;;;;;;5033768;28;38889;-77
2021/03/16 07:04:13;;;;;;;25.40;3.13;;;;;;;;;;5040666;28;38287;-75
2021/03/16 07:06:40;;;;;;;26.60;3.03;;;;;;;;;;5033778;28;37099;-76
2021/03/16 07:09:07;;;;;;;22.67;3.70;;;;;;;;;;5028802;28;39214;-76
2021/03/16 07:11:35;;;;;;;22.73;4.03;;;;;;;;;;5034751;28;39720;-75
2021/03/16 07:14:03;;;;;;;23.13;3.73;;;;;;;;;;5041218;28;38675;-74
2021/03/16 07:16:29;;;;;;;25.90;2.87;;;;;;;;;;5037196;28;37291;-75
2021/03/16 07:18:56;;;;;;;29.10;3.53;;;;;;;;;;5038540;28;38743;-74
2021/03/16 07:21:28;;;;;;;19.97;2.43;;;;;;;;;;5036344;28;39168;-74
2021/03/16 07:23:57;;;;;;;16.77;3.00;;;;;;;;;;5052358;28;39058;-74
2021/03/16 07:26:25;;;;;;;17.83;2.67;;;;;;;;;;5046903;28;37118;-74
2021/03/16 07:28:52;;;;;;;17.37;2.40;;;;;;;;;;5043916;28;40382;-75
2021/03/16 07:31:18;;;;;;;15.63;2.00;;;;;;;;;;5042519;28;39793;-77
2021/03/16 07:33:45;;;;;;;12.47;1.97;;;;;;;;;;5048239;28;36967;-74
2021/03/16 07:36:11;;;;;;;18.63;2.23;;;;;;;;;;5044381;28;36858;-75
2021/03/16 07:38:38;;;;;;;14.80;2.37;;;;;;;;;;5045469;28;39358;-77
2021/03/16 07:41:06;;;;;;;12.17;1.93;;;;;;;;;;5053026;28;40181;-76
2021/03/16 07:43:33;;;;;;;14.83;2.37;;;;;;;;;;5050516;28;38270;-77
2021/03/16 07:46:13;;;;;;;6.77;1.27;;;;;;;;;;5041254;27;38690;-75
2021/03/16 07:48:52;;;;;;;12.07;1.80;;;;;;;;;;5047234;28;47234;-77
2021/03/16 07:51:19;;;;;;;8.90;1.90;;;;;;;;;;5046078;28;38835;-75
2021/03/16 07:54:14;;;;;;;12.90;2.53;;;;;;;;;;5046878;28;38046;-75
2021/03/16 07:56:41;;;;;;;8.60;1.30;;;;;;;;;;5044037;27;47304;-73
2021/03/16 07:59:09;;;;;;;15.00;1.80;;;;;;;;;;5041133;28;38524;-77
2021/03/16 08:01:50;;;;;;;15.40;1.57;;;;;;;;;;5048503;28;39693;-76
2021/03/16 08:04:17;;;;;;;14.77;1.70;;;;;;;;;;5048705;28;38429;-74
2021/03/16 08:06:43;;;;;;;10.83;1.60;;;;;;;;;;5060823;27;38673;-76
2021/03/16 08:09:20;;;;;;;13.83;2.03;;;;;;;;;;5033266;28;39901;-76
2021/03/16 08:11:47;;;;;;;10.50;1.60;;;;;;;;;;5040084;28;38542;-77
2021/03/16 08:14:21;;;;;;;14.03;1.47;;;;;;;;;;5057967;28;39727;-76
2021/03/16 08:16:48;;;;;;;11.53;1.90;;;;;;;;;;5022941;28;37859;-76
2021/03/16 08:19:15;;;;;;;12.80;1.93;;;;;;;;;;5021395;28;39672;-75
2021/03/16 08:21:42;;;;;;;9.67;1.40;;;;;;;;;;5044863;28;40375;-75
2021/03/16 08:24:10;;;;;;;6.77;1.10;;;;;;;;;;5029057;28;39095;-75
2021/03/16 08:26:44;;;;;;;4.07;1.00;;;;;;;;;;5027650;28;38544;-75
2021/03/16 08:29:10;;;;;;;10.17;1.03;;;;;;;;;;5025623;28;39770;-76
2021/03/16 08:31:37;;;;;;;5.53;1.50;;;;;;;;;;5020515;28;39402;-75
2021/03/16 08:34:03;;;;;;;3.30;0.60;;;;;;;;;;5020294;28;37086;-75
2021/03/16 08:36:38;;;;;;;7.77;0.60;;;;;;;;;;5024040;28;37315;-75
2021/03/16 08:39:05;;;;;;;5.17;0.73;;;;;;;;;;5021822;28;39753;-76
2021/03/16 08:41:31;;;;;;;4.63;0.90;;;;;;;;;;5024709;28;38798;-76
2021/03/16 08:43:57;;;;;;;5.23;0.90;;;;;;;;;;5031511;28;40029;-74
2021/03/16 08:46:31;;;;;;;10.23;1.27;;;;;;;;;;5034546;28;37252;-74
2021/03/16 08:48:57;;;;;;;5.03;0.70;;;;;;;;;;5038409;28;39685;-77
2021/03/16 08:51:25;;;;;;;6.50;0.90;;;;;;;;;;5016660;28;37633;-77
2021/03/16 08:53:51;;;;;;;3.67;0.97;;;;;;;;;;5024340;28;38108;-75
2021/03/16 08:56:21;;;;;;;5.60;0.97;;;;;;;;;;5022167;28;37571;-75
2021/03/16 08:58:48;;;;;;;7.03;0.67;;;;;;;;;;5025009;28;39435;-76
2021/03/16 09:01:31;;;;;;;5.67;0.73;;;;;;;;;;5035082;28;37332;-73
2021/03/16 09:03:58;;;;;;;4.00;0.70;;;;;;;;;;5037910;28;39490;-74
2021/03/16 09:06:25;;;;;;;7.17;0.80;;;;;;;;;;5021642;28;37088;-74
2021/03/16 09:08:54;;;;;;;4.93;0.63;;;;;;;;;;5020555;28;39803;-75
2021/03/16 09:11:27;;;;;;;2.80;0.70;;;;;;;;;;5040379;28;39786;-74
2021/03/16 09:13:53;;;;;;;8.43;0.90;;;;;;;;;;5054055;27;39523;-73
2021/03/16 09:16:21;;;;;;;4.23;0.70;;;;;;;;;;5038885;28;37711;-76
2021/03/16 09:18:48;;;;;;;5.97;0.90;;;;;;;;;;5035908;28;38998;-76
2021/03/16 09:21:15;;;;;;;6.93;0.97;;;;;;;;;;5043384;28;38781;-75
2021/03/16 09:23:41;;;;;;;4.50;0.80;;;;;;;;;;5054964;27;39065;-76
2021/03/16 09:26:08;;;;;;;10.40;1.27;;;;;;;;;;5048649;28;37407;-76
2021/03/16 09:28:35;;;;;;;6.47;0.90;;;;;;;;;;5038892;28;39130;-77
2021/03/16 09:31:01;;;;;;;4.87;0.90;;;;;;;;;;5050866;27;40353;-75
2021/03/16 09:33:28;;;;;;;6.77;0.80;;;;;;;;;;5038950;28;38944;-75
2021/03/16 09:35:55;;;;;;;6.90;0.90;;;;;;;;;;5040326;28;38466;-76
2021/03/16 09:38:21;;;;;;;5.17;0.80;;;;;;;;;;5059370;27;40664;-75
2021/03/16 09:40:48;;;;;;;5.77;1.03;;;;;;;;;;5059116;27;38489;-76
2021/03/16 09:43:17;;;;;;;6.87;1.17;;;;;;;;;;5038415;28;38108;-74
2021/03/16 09:45:51;;;;;;;3.07;1.40;;;;;;;;;;5057012;28;37400;-75
2021/03/16 09:48:18;;;;;;;4.17;1.10;;;;;;;;;;5044916;28;39511;-75
2021/03/16 09:50:45;;;;;;;4.73;1.00;;;;;;;;;;5027451;28;39475;-75
2021/03/16 09:53:15;;;;;;;4.17;0.77;;;;;;;;;;5017252;28;38517;-75
2021/03/16 09:55:42;;;;;;;3.53;0.90;;;;;;;;;;5019427;28;35394;-76
2021/03/16 09:58:19;;;;;;;4.30;0.83;;;;;;;;;;5032015;28;40784;-74
2021/03/16 10:00:49;;;;;;;4.60;0.67;;;;;;;;;;5035377;28;38840;-76
2021/03/16 10:03:16;;;;;;;3.30;0.57;;;;;;;;;;5020957;28;38279;-74
2021/03/16 10:05:42;;;;;;;4.13;0.63;;;;;;;;;;5024087;28;37167;-75
2021/03/16 10:08:09;;;;;;;4.47;0.50;;;;;;;;;;5024473;28;39850;-74
2021/03/16 10:10:39;;;;;;;1.50;0.40;;;;;;;;;;5039754;28;39017;-76
2021/03/16 10:13:10;;;;;;;1.30;0.53;;;;;;;;;;5039035;28;39066;-87
2021/03/16 10:15:37;;;;;;;3.23;0.80;;;;;;;;;;5043172;28;38946;-89
2021/03/16 10:18:08;;;;;;;1.80;0.70;;;;;;;;;;5025609;28;39221;-89
2021/03/16 10:20:39;;;;;;;3.50;0.70;;;;;;;;;;5026936;28;40207;-91
2021/03/16 10:23:10;;;;;;;3.78;0.98;;;;;;;;;;5040670;28;38694;-88
2021/03/16 10:25:37;;;;;;;1.93;0.80;;;;;;;;;;5038157;28;35975;-89
2021/03/16 10:28:05;;;;;;;2.40;0.70;;;;;;;;;;5030212;28;39327;-88
2021/03/16 10:30:33;;;;;;;3.70;0.70;;;;;;;;;;5025055;28;38995;-90
2021/03/16 10:32:59;;;;;;;2.50;0.80;;;;;;;;;;5034405;28;38080;-88
2021/03/16 10:35:26;;;;;;;2.23;0.60;;;;;;;;;;5025451;28;38375;-89
2021/03/16 10:37:53;;;;;;;1.20;0.70;;;;;;;;;;5026576;28;37855;-85
2021/03/16 10:40:20;;;;;;;1.60;0.80;;;;;;;;;;5019269;28;38983;-87
2021/03/16 10:42:46;;;;;;;2.53;0.97;;;;;;;;;;5020516;28;38308;-87
2021/03/16 10:45:13;;;;;;;1.90;0.70;;;;;;;;;;5020901;28;36867;-87
2021/03/16 10:47:39;;;;;;;1.63;0.50;;;;;;;;;;5023578;28;36141;-82
2021/03/16 10:50:06;;;;;;;1.57;0.70;;;;;;;;;;5042901;28;38549;-87
2021/03/16 10:52:33;;;;;;;2.47;0.70;;;;;;;;;;5045103;28;38039;-82
2021/03/16 10:54:59;;;;;;;1.30;0.50;;;;;;;;;;5039652;28;38254;-86
2021/03/16 10:57:26;;;;;;;4.53;0.80;;;;;;;;;;5063865;28;38800;-84
2021/03/16 10:59:52;;;;;;;2.80;0.60;;;;;;;;;;5056182;27;37769;-81
2021/03/16 11:02:18;;;;;;;1.17;1.00;;;;;;;;;;5048329;28;38629;-87
2021/03/16 11:04:45;;;;;;;2.67;0.90;;;;;;;;;;5024629;28;37860;-86
2021/03/16 11:07:11;;;;;;;1.97;0.73;;;;;;;;;;5029797;28;39189;-82
2021/03/16 11:09:38;;;;;;;2.20;1.07;;;;;;;;;;5042886;28;38118;-84
2021/03/16 11:12:04;;;;;;;3.60;1.40;;;;;;;;;;5022841;28;38321;-84
2021/03/16 11:14:31;;;;;;;1.50;0.83;;;;;;;;;;5028314;28;37443;-84
2021/03/16 11:16:57;;;;;;;1.87;0.93;;;;;;;;;;5059536;27;37900;-89
2021/03/16 11:19:23;;;;;;;2.97;0.83;;;;;;;;;;5037155;28;38684;-87
2021/03/16 11:21:50;;;;;;;2.37;0.93;;;;;;;;;;5058926;27;38882;-87
2021/03/16 11:24:18;;;;;;;2.73;0.87;;;;;;;;;;5054605;28;37438;-87
2021/03/16 11:26:44;;;;;;;3.73;1.10;;;;;;;;;;5062442;27;39887;-85
2021/03/16 11:29:11;;;;;;;2.60;0.80;;;;;;;;;;5042721;28;39144;-86
2021/03/16 11:31:37;;;;;;;2.70;0.80;;;;;;;;;;5044481;28;39412;-82
2021/03/16 11:34:04;;;;;;;3.53;1.07;;;;;;;;;;5043983;28;38212;-85
2021/03/16 11:36:30;;;;;;;2.67;0.87;;;;;;;;;;5062407;28;39891;-86
2021/03/16 11:38:56;;;;;;;3.20;0.93;;;;;;;;;;5054653;27;39330;-88
2021/03/16 11:41:23;;;;;;;2.37;0.83;;;;;;;;;;5056222;27;39498;-86
2021/03/16 11:43:49;;;;;;;2.23;1.30;;;;;;;;;;5053577;27;37823;-86
2021/03/16 11:46:16;;;;;;;2.80;1.10;;;;;;;;;;5041732;28;39685;-85
2021/03/16 11:48:42;;;;;;;2.50;1.37;;;;;;;;;;5045742;28;38294;-84
2021/03/16 11:51:08;;;;;;;3.17;1.80;;;;;;;;;;5060795;28;38141;-82
2021/03/16 11:53:35;;;;;;;5.10;1.80;;;;;;;;;;5038489;28;37311;-80
2021/03/16 11:56:01;;;;;;;3.17;1.63;;;;;;;;;;5057785;28;39889;-83
2021/03/16 11:58:28;;;;;;;2.33;1.60;;;;;;;;;;5039819;28;39357;-82
2021/03/16 12:00:54;;;;;;;3.03;1.33;;;;;;;;;;5037801;28;38915;-80
2021/03/16 12:03:20;;;;;;;1.07;1.00;;;;;;;;;;5036347;28;37193;-82
2021/03/16 12:05:47;;;;;;;2.20;1.00;;;;;;;;;;5038804;28;39109;-81
2021/03/16 12:08:13;;;;;;;2.73;1.00;;;;;;;;;;5041331;28;39567;-81
2021/03/16 12:10:40;;;;;;;2.20;1.00;;;;;;;;;;5057625;27;39820;-82
2021/03/16 12:13:06;;;;;;;4.73;2.83;;;;;;;;;;5055321;28;37680;-81
2021/03/16 12:15:33;;;;;;;3.10;1.83;;;;;;;;;;5056092;27;39958;-80
2021/03/16 12:17:59;;;;;;;1.53;1.27;;;;;;;;;;5056404;27;38507;-80
2021/03/16 12:20:26;;;;;;;2.77;1.37;;;;;;;;;;5044985;28;39003;-80
2021/03/16 12:22:53;;;;;;;3.20;1.10;;;;;;;;;;5046428;28;20052;-78
2021/03/16 12:25:19;;;;;;;1.10;0.60;;;;;;;;;;5047022;27;38492;-78
2021/03/16 12:27:46;;;;;;;1.97;0.60;;;;;;;;;;5043669;28;36982;-79
2021/03/16 12:30:13;;;;;;;0.80;0.80;;;;;;;;;;5016832;28;38217;-82
2021/03/16 12:32:39;;;;;;;3.13;0.90;;;;;;;;;;5031875;28;37525;-77
2021/03/16 12:35:12;;;;;;;1.93;0.77;;;;;;;;;;5017249;28;38646;-78
2021/03/16 12:37:39;;;;;;;1.27;0.47;;;;;;;;;;5022111;28;39863;-79
2021/03/16 12:40:06;;;;;;;2.03;0.60;;;;;;;;;;5034074;28;40061;-79
2021/03/16 12:42:33;;;;;;;2.53;0.80;;;;;;;;;;5018011;28;37509;-78
2021/03/16 12:45:00;;;;;;;2.47;0.50;;;;;;;;;;5025638;28;39850;-77
2021/03/16 12:47:26;;;;;;;0.77;0.40;;;;;;;;;;5019933;28;36675;-77
2021/03/16 12:49:53;;;;;;;1.63;0.60;;;;;;;;;;5032728;28;38632;-78
2021/03/16 12:52:19;;;;;;;1.93;0.63;;;;;;;;;;5037947;28;36635;-82
2021/03/16 12:54:46;;;;;;;1.60;0.50;;;;;;;;;;5040676;28;39946;-79
2021/03/16 12:57:14;;;;;;;0.90;0.30;;;;;;;;;;5032618;28;38741;-79
2021/03/16 12:59:40;;;;;;;0.90;0.47;;;;;;;;;;5059848;28;38655;-79
2021/03/16 13:02:07;;;;;;;1.20;0.47;;;;;;;;;;5046162;28;37232;-78
2021/03/16 13:04:33;;;;;;;2.07;0.70;;;;;;;;;;5039957;28;39719;-78
2021/03/16 13:06:59;;;;;;;0.53;0.40;;;;;;;;;;5042186;28;38709;-80
2021/03/16 13:09:26;;;;;;;1.60;0.60;;;;;;;;;;5050195;28;39180;-79
2021/03/16 13:11:53;;;;;;;0.83;0.47;;;;;;;;;;5026755;28;36871;-76
2021/03/16 13:14:19;;;;;;;1.20;0.40;;;;;;;;;;5049097;28;39311;-78
2021/03/16 13:16:45;;;;;;;3.27;0.67;;;;;;;;;;5027926;28;39599;-77
2021/03/16 13:19:12;;;;;;;1.80;1.23;;;;;;;;;;5043918;28;39790;-78
2021/03/16 13:21:38;;;;;;;2.10;0.40;;;;;;;;;;5027670;28;38672;-80
2021/03/16 13:24:05;;;;;;;0.90;0.47;;;;;;;;;;5034893;28;39279;-79
2021/03/16 13:26:31;;;;;;;1.10;0.50;;;;;;;;;;5025807;28;38549;-78
2021/03/16 13:28:58;;;;;;;1.70;0.40;;;;;;;;;;5026732;28;38792;-81
2021/03/16 13:31:25;;;;;;;0.50;0.33;;;;;;;;;;5024515;28;37583;-80
2021/03/16 13:33:51;;;;;;;0.77;0.20;;;;;;;;;;5028556;28;39857;-83
2021/03/16 13:36:17;;;;;;;1.87;0.60;;;;;;;;;;5025826;28;38798;-78
2021/03/16 13:38:44;;;;;;;1.10;0.40;;;;;;;;;;5036530;28;38682;-78
2021/03/16 13:41:10;;;;;;;1.70;0.17;;;;;;;;;;5024244;28;36618;-78
2021/03/16 13:43:37;;;;;;;1.50;0.40;;;;;;;;;;5041551;28;35617;-78
2021/03/16 13:46:03;;;;;;;0.40;0.40;;;;;;;;;;5034520;28;39185;-75
2021/03/16 13:48:30;;;;;;;2.37;0.50;;;;;;;;;;5023175;28;39031;-75
2021/03/16 13:50:56;;;;;;;5.43;2.97;;;;;;;;;;5018982;28;37709;-80
2021/03/16 13:53:22;;;;;;;5.33;3.77;;;;;;;;;;5055300;28;39207;-78
2021/03/16 13:55:49;;;;;;;1.80;0.80;;;;;;;;;;5059176;27;40075;-79
2021/03/16 13:58:15;;;;;;;2.07;0.40;;;;;;;;;;5044433;28;38416;-78
2021/03/16 14:00:44;;;;;;;1.07;0.53;;;;;;;;;;5044173;28;37802;-78
2021/03/16 14:03:10;;;;;;;0.83;0.40;;;;;;;;;;5038475;28;37813;-75
2021/03/16 14:05:37;;;;;;;0.67;0.50;;;;;;;;;;5053933;28;37589;-76
2021/03/16 14:08:04;;;;;;;2.33;0.50;;;;;;;;;;5032297;28;38869;-76
2021/03/16 14:10:30;;;;;;;0.87;0.60;;;;;;;;;;5040199;28;36843;-77
2021/03/16 14:12:56;;;;;;;0.97;0.40;;;;;;;;;;5043260;28;39063;-75
2021/03/16 14:15:23;;;;;;;2.13;0.80;;;;;;;;;;5041080;28;39243;-76
2021/03/16 14:17:49;;;;;;;2.57;0.50;;;;;;;;;;5043517;28;37541;-75
2021/03/16 14:20:16;;;;;;;1.13;0.50;;;;;;;;;;5057660;28;36796;-75
2021/03/16 14:22:46;;;;;;;0.93;0.57;;;;;;;;;;5043899;28;39522;-78
2021/03/16 14:25:13;;;;;;;1.20;0.70;;;;;;;;;;5015940;28;39039;-76
2021/03/16 14:27:40;;;;;;;2.07;0.50;;;;;;;;;;5035935;28;39986;-78
2021/03/16 14:30:07;;;;;;;1.20;0.47;;;;;;;;;;5029773;28;37784;-75
2021/03/16 14:32:33;;;;;;;0.87;0.73;;;;;;;;;;5029722;28;39436;-78
2021/03/16 14:35:00;;;;;;;3.17;0.80;;;;;;;;;;5020703;28;38640;-76
2021/03/16 14:37:26;;;;;;;0.67;0.67;;;;;;;;;;5022224;28;38925;-78
2021/03/16 14:39:53;;;;;;;1.53;0.63;;;;;;;;;;5025235;28;36294;-76